sensor_id;sensor_type;location;lat;lon;timestamp;pressure;altitude;pressure_sealevel;temperature;humidity
5455;BME280;2750;49.050;9.250;2022-07-29T00:04:51;98590.75;;;21.79;89.15
5455;BME280;2750;49.050;9.250;2022-07-29T00:09:53;98595.44;;;21.58;90.51
5455;BME280;2750;49.050;9.250;2022-07-29T00:14:54;98590.25;;;21.66;89.79
5455;BME280;2750;49.050;9.250;2022-07-29T00:19:57;98586.25;;;21.62;89.53
5455;BME280;2750;49.050;9.250;2022-07-29T00:24:59;98574.00;;;21.61;89.46
5455;BME280;2750;49.050;9.250;2022-07-29T00:30:01;98575.13;;;21.58;88.70
5455;BME280;2750;49.050;9.250;2022-07-29T00:35:06;98569.25;;;21.27;90.11
5455;BME280;2750;49.050;9.250;2022-07-29T00:40:40;98568.84;;;21.32;90.10
5455;BME280;2750;49.050;9.250;2022-07-29T00:45:42;98559.72;;;21.17;91.05
5455;BME280;2750;49.050;9.250;2022-07-29T00:50:45;98548.78;;;20.83;92.87
5455;BME280;2750;49.050;9.250;2022-07-29T00:55:46;98554.16;;;21.10;92.18
5455;BME280;2750;49.050;9.250;2022-07-29T01:00:48;98551.13;;;21.15;89.60
5455;BME280;2750;49.050;9.250;2022-07-29T01:05:51;98535.69;;;21.10;87.82
5455;BME280;2750;49.050;9.250;2022-07-29T01:10:54;98547.00;;;20.83;90.66
5455;BME280;2750;49.050;9.250;2022-07-29T01:15:59;98546.19;;;20.64;93.54
5455;BME280;2750;49.050;9.250;2022-07-29T01:21:27;98550.00;;;21.08;92.16
5455;BME280;2750;49.050;9.250;2022-07-29T01:26:41;98545.69;;;21.07;91.40
5455;BME280;2750;49.050;9.250;2022-07-29T01:31:48;98550.34;;;20.57;92.97
5455;BME280;2750;49.050;9.250;2022-07-29T01:37:15;98547.97;;;20.73;91.84
5455;BME280;2750;49.050;9.250;2022-07-29T01:42:26;98538.25;;;20.64;93.30
5455;BME280;2750;49.050;9.250;2022-07-29T01:47:34;98551.75;;;20.61;92.34
5455;BME280;2750;49.050;9.250;2022-07-29T01:52:56;98545.38;;;20.54;91.56
5455;BME280;2750;49.050;9.250;2022-07-29T01:58:00;98549.22;;;20.40;92.63
5455;BME280;2750;49.050;9.250;2022-07-29T02:03:09;98553.63;;;20.20;93.55
5455;BME280;2750;49.050;9.250;2022-07-29T02:08:13;98547.59;;;20.39;92.81
5455;BME280;2750;49.050;9.250;2022-07-29T02:13:16;98543.38;;;20.27;92.71
5455;BME280;2750;49.050;9.250;2022-07-29T02:18:22;98541.44;;;20.19;92.16
5455;BME280;2750;49.050;9.250;2022-07-29T02:23:25;98542.84;;;20.23;92.18
5455;BME280;2750;49.050;9.250;2022-07-29T02:28:28;98538.81;;;20.29;92.47
5455;BME280;2750;49.050;9.250;2022-07-29T02:33:32;98542.53;;;20.07;91.65
5455;BME280;2750;49.050;9.250;2022-07-29T02:38:35;98528.94;;;20.02;92.74
5455;BME280;2750;49.050;9.250;2022-07-29T02:44:04;98528.06;;;19.73;94.09
5455;BME280;2750;49.050;9.250;2022-07-29T02:49:17;98535.69;;;19.76;93.85
5455;BME280;2750;49.050;9.250;2022-07-29T02:54:23;98536.22;;;19.79;93.48
5455;BME280;2750;49.050;9.250;2022-07-29T02:59:29;98536.16;;;20.10;93.03
5455;BME280;2750;49.050;9.250;2022-07-29T03:04:34;98521.31;;;20.18;92.89
5455;BME280;2750;49.050;9.250;2022-07-29T03:09:36;98526.88;;;20.15;91.47
5455;BME280;2750;49.050;9.250;2022-07-29T03:14:38;98528.72;;;19.65;93.60
5455;BME280;2750;49.050;9.250;2022-07-29T03:19:41;98535.59;;;19.96;91.80
5455;BME280;2750;49.050;9.250;2022-07-29T03:24:43;98532.81;;;19.88;92.83
5455;BME280;2750;49.050;9.250;2022-07-29T03:29:44;98536.47;;;19.36;95.93
5455;BME280;2750;49.050;9.250;2022-07-29T03:34:47;98541.22;;;19.12;96.23
5455;BME280;2750;49.050;9.250;2022-07-29T03:39:49;98542.00;;;19.54;94.11
5455;BME280;2750;49.050;9.250;2022-07-29T03:44:53;98535.94;;;19.73;93.55
5455;BME280;2750;49.050;9.250;2022-07-29T03:50:00;98543.91;;;19.52;93.96
5455;BME280;2750;49.050;9.250;2022-07-29T03:55:03;98542.66;;;19.46;93.85
5455;BME280;2750;49.050;9.250;2022-07-29T04:00:07;98538.63;;;19.42;94.25
5455;BME280;2750;49.050;9.250;2022-07-29T04:05:13;98535.50;;;19.58;94.02
5455;BME280;2750;49.050;9.250;2022-07-29T04:10:17;98533.34;;;20.01;93.56
5455;BME280;2750;49.050;9.250;2022-07-29T04:15:19;98538.66;;;20.11;93.65
5455;BME280;2750;49.050;9.250;2022-07-29T04:20:22;98533.81;;;20.64;91.80
5455;BME280;2750;49.050;9.250;2022-07-29T04:25:23;98541.25;;;21.07;90.47
5455;BME280;2750;49.050;9.250;2022-07-29T04:30:25;98544.00;;;21.25;88.63
5455;BME280;2750;49.050;9.250;2022-07-29T04:35:28;98541.50;;;21.78;87.51
5455;BME280;2750;49.050;9.250;2022-07-29T04:40:30;98541.44;;;21.42;85.92
5455;BME280;2750;49.050;9.250;2022-07-29T04:45:33;98537.81;;;22.51;84.08
5455;BME280;2750;49.050;9.250;2022-07-29T04:50:37;98539.84;;;23.18;81.35
5455;BME280;2750;49.050;9.250;2022-07-29T04:55:39;98527.44;;;23.19;81.06
5455;BME280;2750;49.050;9.250;2022-07-29T05:00:41;98532.69;;;23.78;79.83
5455;BME280;2750;49.050;9.250;2022-07-29T05:05:44;98539.91;;;23.26;81.43
5455;BME280;2750;49.050;9.250;2022-07-29T05:10:46;98539.56;;;22.42;83.91
5455;BME280;2750;49.050;9.250;2022-07-29T05:15:47;98542.66;;;22.73;83.45
5455;BME280;2750;49.050;9.250;2022-07-29T05:20:50;98545.78;;;22.69;83.46
5455;BME280;2750;49.050;9.250;2022-07-29T05:25:51;98531.69;;;22.86;83.05
5455;BME280;2750;49.050;9.250;2022-07-29T05:30:53;98537.81;;;23.12;82.91
5455;BME280;2750;49.050;9.250;2022-07-29T05:35:56;98545.91;;;23.11;82.27
5455;BME280;2750;49.050;9.250;2022-07-29T05:40:57;98556.25;;;23.48;81.56
5455;BME280;2750;49.050;9.250;2022-07-29T05:45:59;98546.94;;;25.08;78.01
5455;BME280;2750;49.050;9.250;2022-07-29T05:51:02;98553.50;;;26.91;72.61
5455;BME280;2750;49.050;9.250;2022-07-29T05:56:05;98557.31;;;26.51;72.16
5455;BME280;2750;49.050;9.250;2022-07-29T06:01:07;98557.53;;;25.33;76.16
5455;BME280;2750;49.050;9.250;2022-07-29T06:06:10;98556.66;;;27.61;71.67
5455;BME280;2750;49.050;9.250;2022-07-29T06:11:12;98563.50;;;29.27;67.29
5455;BME280;2750;49.050;9.250;2022-07-29T06:16:13;98566.38;;;30.48;65.56
5455;BME280;2750;49.050;9.250;2022-07-29T06:21:16;98569.72;;;32.51;61.79
5455;BME280;2750;49.050;9.250;2022-07-29T06:26:18;98571.28;;;33.46;60.39
5455;BME280;2750;49.050;9.250;2022-07-29T06:31:19;98581.41;;;32.32;61.58
5455;BME280;2750;49.050;9.250;2022-07-29T06:36:22;98571.25;;;31.96;62.09
5455;BME280;2750;49.050;9.250;2022-07-29T06:41:23;98576.38;;;31.20;61.97
5455;BME280;2750;49.050;9.250;2022-07-29T06:46:26;98575.81;;;29.83;65.98
5455;BME280;2750;49.050;9.250;2022-07-29T06:51:29;98585.38;;;30.60;64.54
5455;BME280;2750;49.050;9.250;2022-07-29T06:56:31;98588.53;;;31.03;63.07
5455;BME280;2750;49.050;9.250;2022-07-29T07:01:32;98585.44;;;32.54;61.12
5455;BME280;2750;49.050;9.250;2022-07-29T07:06:35;98585.03;;;32.12;61.20
5455;BME280;2750;49.050;9.250;2022-07-29T07:11:37;98590.06;;;31.83;61.19
5455;BME280;2750;49.050;9.250;2022-07-29T07:16:38;98587.34;;;31.89;61.28
5455;BME280;2750;49.050;9.250;2022-07-29T07:21:41;98583.75;;;34.31;56.91
5455;BME280;2750;49.050;9.250;2022-07-29T07:26:42;98582.50;;;34.34;56.88
5455;BME280;2750;49.050;9.250;2022-07-29T07:31:44;98596.47;;;35.83;53.65
5455;BME280;2750;49.050;9.250;2022-07-29T07:36:47;98593.00;;;34.95;54.14
5455;BME280;2750;49.050;9.250;2022-07-29T07:41:48;98590.72;;;35.68;52.31
5455;BME280;2750;49.050;9.250;2022-07-29T07:46:50;98583.50;;;36.37;51.35
5455;BME280;2750;49.050;9.250;2022-07-29T07:51:53;98572.69;;;37.87;50.04
5455;BME280;2750;49.050;9.250;2022-07-29T07:56:54;98580.97;;;38.46;48.35
5455;BME280;2750;49.050;9.250;2022-07-29T08:01:56;98577.66;;;36.28;50.70
5455;BME280;2750;49.050;9.250;2022-07-29T08:06:59;98570.75;;;34.10;54.21
5455;BME280;2750;49.050;9.250;2022-07-29T08:12:02;98577.31;;;33.84;55.07
5455;BME280;2750;49.050;9.250;2022-07-29T08:17:05;98577.19;;;32.11;57.39
5455;BME280;2750;49.050;9.250;2022-07-29T08:22:08;98570.09;;;34.86;53.10
5455;BME280;2750;49.050;9.250;2022-07-29T08:27:10;98573.88;;;37.74;49.52
5455;BME280;2750;49.050;9.250;2022-07-29T08:32:12;98584.47;;;35.91;51.47
5455;BME280;2750;49.050;9.250;2022-07-29T08:37:15;98582.19;;;34.83;52.94
5455;BME280;2750;49.050;9.250;2022-07-29T08:42:16;98576.47;;;35.84;52.56
5455;BME280;2750;49.050;9.250;2022-07-29T08:47:17;98583.06;;;36.28;50.95
5455;BME280;2750;49.050;9.250;2022-07-29T08:52:21;98576.13;;;37.44;49.21
5455;BME280;2750;49.050;9.250;2022-07-29T08:57:25;98583.78;;;35.84;51.06
5455;BME280;2750;49.050;9.250;2022-07-29T09:02:29;98575.78;;;33.27;55.31
5455;BME280;2750;49.050;9.250;2022-07-29T09:07:35;98575.78;;;35.19;52.46
5455;BME280;2750;49.050;9.250;2022-07-29T09:12:37;98578.13;;;34.63;53.37
5455;BME280;2750;49.050;9.250;2022-07-29T09:17:39;98575.78;;;33.70;54.82
5455;BME280;2750;49.050;9.250;2022-07-29T09:22:43;98581.22;;;33.45;55.11
5455;BME280;2750;49.050;9.250;2022-07-29T09:27:49;98570.41;;;33.88;54.45
5455;BME280;2750;49.050;9.250;2022-07-29T09:32:55;98575.19;;;33.25;56.96
5455;BME280;2750;49.050;9.250;2022-07-29T09:38:09;98578.28;;;31.97;57.71
5455;BME280;2750;49.050;9.250;2022-07-29T09:43:12;98566.91;;;32.70;56.82
5455;BME280;2750;49.050;9.250;2022-07-29T09:48:15;98573.41;;;31.67;57.46
5455;BME280;2750;49.050;9.250;2022-07-29T09:53:32;98569.13;;;31.14;58.31
5455;BME280;2750;49.050;9.250;2022-07-29T09:58:34;98565.44;;;32.75;56.85
5455;BME280;2750;49.050;9.250;2022-07-29T10:03:50;98559.88;;;32.38;57.57
5455;BME280;2750;49.050;9.250;2022-07-29T10:08:53;98565.81;;;32.09;58.62
5455;BME280;2750;49.050;9.250;2022-07-29T10:13:54;98564.81;;;31.19;58.86
5455;BME280;2750;49.050;9.250;2022-07-29T10:18:56;98564.41;;;31.03;60.17
5455;BME280;2750;49.050;9.250;2022-07-29T10:23:59;98563.44;;;31.74;58.16
5455;BME280;2750;49.050;9.250;2022-07-29T10:29:02;98558.19;;;31.09;58.90
5455;BME280;2750;49.050;9.250;2022-07-29T10:34:08;98550.09;;;31.55;57.60
5455;BME280;2750;49.050;9.250;2022-07-29T10:39:22;98552.41;;;30.79;57.95
5455;BME280;2750;49.050;9.250;2022-07-29T10:44:27;98554.44;;;31.36;57.76
5455;BME280;2750;49.050;9.250;2022-07-29T10:49:29;98554.75;;;32.93;55.28
5455;BME280;2750;49.050;9.250;2022-07-29T10:54:46;98537.84;;;32.86;53.57
5455;BME280;2750;49.050;9.250;2022-07-29T10:59:51;98541.84;;;32.01;54.68
5455;BME280;2750;49.050;9.250;2022-07-29T11:05:14;98529.59;;;33.48;51.54
5455;BME280;2750;49.050;9.250;2022-07-29T11:10:25;98531.09;;;33.26;50.79
5455;BME280;2750;49.050;9.250;2022-07-29T11:15:26;98521.63;;;32.36;51.64
5455;BME280;2750;49.050;9.250;2022-07-29T11:20:36;98520.59;;;32.37;51.92
5455;BME280;2750;49.050;9.250;2022-07-29T11:25:39;98520.66;;;32.31;53.05
5455;BME280;2750;49.050;9.250;2022-07-29T11:30:48;98521.78;;;31.52;53.84
5455;BME280;2750;49.050;9.250;2022-07-29T11:36:08;98520.00;;;31.91;53.42
5455;BME280;2750;49.050;9.250;2022-07-29T11:41:25;98503.22;;;32.96;51.14
5455;BME280;2750;49.050;9.250;2022-07-29T11:46:46;98524.16;;;32.31;51.61
5455;BME280;2750;49.050;9.250;2022-07-29T11:51:52;98514.88;;;33.33;49.82
5455;BME280;2750;49.050;9.250;2022-07-29T11:56:57;98517.63;;;33.99;49.65
5455;BME280;2750;49.050;9.250;2022-07-29T12:01:59;98505.03;;;34.52;49.58
5455;BME280;2750;49.050;9.250;2022-07-29T12:07:00;98499.09;;;34.21;49.70
5455;BME280;2750;49.050;9.250;2022-07-29T12:12:04;98482.69;;;35.10;48.86
5455;BME280;2750;49.050;9.250;2022-07-29T12:17:06;98481.75;;;35.91;47.04
5455;BME280;2750;49.050;9.250;2022-07-29T12:22:07;98490.13;;;35.26;47.68
5455;BME280;2750;49.050;9.250;2022-07-29T12:27:10;98486.91;;;34.18;49.07
5455;BME280;2750;49.050;9.250;2022-07-29T12:32:13;98483.84;;;33.67;49.12
5455;BME280;2750;49.050;9.250;2022-07-29T12:37:14;98478.72;;;33.95;48.07
5455;BME280;2750;49.050;9.250;2022-07-29T12:42:17;98486.31;;;33.68;49.38
5455;BME280;2750;49.050;9.250;2022-07-29T12:47:19;98480.13;;;34.27;47.91
5455;BME280;2750;49.050;9.250;2022-07-29T12:52:28;98478.22;;;34.92;47.31
5455;BME280;2750;49.050;9.250;2022-07-29T12:57:31;98484.53;;;34.63;48.15
5455;BME280;2750;49.050;9.250;2022-07-29T13:02:33;98479.34;;;34.62;51.42
5455;BME280;2750;49.050;9.250;2022-07-29T13:07:35;98486.63;;;33.90;53.18
5455;BME280;2750;49.050;9.250;2022-07-29T13:12:39;98487.84;;;34.88;52.03
5455;BME280;2750;49.050;9.250;2022-07-29T13:18:01;98484.72;;;35.26;51.11
5455;BME280;2750;49.050;9.250;2022-07-29T13:23:02;98497.03;;;34.76;51.54
5455;BME280;2750;49.050;9.250;2022-07-29T13:28:05;98510.53;;;34.57;52.21
5455;BME280;2750;49.050;9.250;2022-07-29T13:33:07;98502.06;;;34.72;51.50
5455;BME280;2750;49.050;9.250;2022-07-29T13:38:08;98517.72;;;33.38;52.41
5455;BME280;2750;49.050;9.250;2022-07-29T13:43:11;98516.28;;;33.35;52.14
5455;BME280;2750;49.050;9.250;2022-07-29T13:48:13;98512.09;;;34.24;52.24
5455;BME280;2750;49.050;9.250;2022-07-29T13:53:14;98496.72;;;33.65;52.57
5455;BME280;2750;49.050;9.250;2022-07-29T13:58:17;98492.81;;;33.79;52.29
5455;BME280;2750;49.050;9.250;2022-07-29T14:03:19;98493.38;;;33.99;52.01
5455;BME280;2750;49.050;9.250;2022-07-29T14:08:20;98487.47;;;34.20;51.00
5455;BME280;2750;49.050;9.250;2022-07-29T14:13:23;98481.19;;;34.26;51.74
5455;BME280;2750;49.050;9.250;2022-07-29T14:18:25;98486.00;;;33.22;52.94
5455;BME280;2750;49.050;9.250;2022-07-29T14:23:26;98481.13;;;33.12;52.45
5455;BME280;2750;49.050;9.250;2022-07-29T14:28:29;98484.16;;;33.77;52.24
5455;BME280;2750;49.050;9.250;2022-07-29T14:33:31;98486.72;;;34.13;51.33
5455;BME280;2750;49.050;9.250;2022-07-29T14:38:32;98485.28;;;33.99;51.75
5455;BME280;2750;49.050;9.250;2022-07-29T14:43:35;98490.13;;;33.42;49.63
5455;BME280;2750;49.050;9.250;2022-07-29T14:48:37;98496.34;;;32.12;51.44
5455;BME280;2750;49.050;9.250;2022-07-29T14:53:38;98505.41;;;31.80;51.69
5455;BME280;2750;49.050;9.250;2022-07-29T14:58:41;98504.91;;;31.39;51.62
5455;BME280;2750;49.050;9.250;2022-07-29T15:03:43;98520.03;;;31.07;51.48
5455;BME280;2750;49.050;9.250;2022-07-29T15:08:44;98518.97;;;30.95;52.37
5455;BME280;2750;49.050;9.250;2022-07-29T15:13:47;98517.53;;;30.59;51.12
5455;BME280;2750;49.050;9.250;2022-07-29T15:18:49;98515.28;;;30.82;51.53
5455;BME280;2750;49.050;9.250;2022-07-29T15:23:50;98523.75;;;30.66;51.72
5455;BME280;2750;49.050;9.250;2022-07-29T15:28:53;98521.88;;;30.47;50.74
5455;BME280;2750;49.050;9.250;2022-07-29T15:33:55;98525.59;;;30.72;51.47
5455;BME280;2750;49.050;9.250;2022-07-29T15:38:57;98524.63;;;30.00;51.08
5455;BME280;2750;49.050;9.250;2022-07-29T15:44:00;98522.53;;;29.88;50.72
5455;BME280;2750;49.050;9.250;2022-07-29T15:49:02;98535.16;;;30.08;50.94
5455;BME280;2750;49.050;9.250;2022-07-29T15:54:05;98534.72;;;29.63;51.23
5455;BME280;2750;49.050;9.250;2022-07-29T15:59:07;98535.66;;;29.83;50.34
5455;BME280;2750;49.050;9.250;2022-07-29T16:04:09;98534.91;;;29.96;50.57
5455;BME280;2750;49.050;9.250;2022-07-29T16:09:10;98528.31;;;29.99;49.65
5455;BME280;2750;49.050;9.250;2022-07-29T16:14:13;98526.34;;;30.27;49.01
5455;BME280;2750;49.050;9.250;2022-07-29T16:19:15;98528.69;;;30.43;49.38
5455;BME280;2750;49.050;9.250;2022-07-29T16:24:16;98532.59;;;30.47;49.23
5455;BME280;2750;49.050;9.250;2022-07-29T16:29:19;98533.97;;;30.30;49.40
5455;BME280;2750;49.050;9.250;2022-07-29T16:34:21;98529.22;;;30.25;49.45
5455;BME280;2750;49.050;9.250;2022-07-29T16:39:23;98535.16;;;30.08;49.28
5455;BME280;2750;49.050;9.250;2022-07-29T16:44:26;98535.34;;;30.13;49.43
5455;BME280;2750;49.050;9.250;2022-07-29T16:49:29;98531.81;;;29.93;49.31
5455;BME280;2750;49.050;9.250;2022-07-29T16:54:31;98527.56;;;30.24;49.30
5455;BME280;2750;49.050;9.250;2022-07-29T16:59:34;98528.84;;;30.35;48.92
5455;BME280;2750;49.050;9.250;2022-07-29T17:04:35;98535.50;;;30.65;48.63
5455;BME280;2750;49.050;9.250;2022-07-29T17:09:37;98531.06;;;30.25;48.07
5455;BME280;2750;49.050;9.250;2022-07-29T17:14:39;98540.44;;;30.68;48.00
5455;BME280;2750;49.050;9.250;2022-07-29T17:19:41;98533.25;;;31.08;48.87
5455;BME280;2750;49.050;9.250;2022-07-29T17:24:43;98529.72;;;31.27;47.81
5455;BME280;2750;49.050;9.250;2022-07-29T17:29:46;98541.88;;;31.30;47.79
5455;BME280;2750;49.050;9.250;2022-07-29T17:34:47;98545.59;;;30.76;47.46
5455;BME280;2750;49.050;9.250;2022-07-29T17:39:49;98550.00;;;30.17;47.98
5455;BME280;2750;49.050;9.250;2022-07-29T17:44:51;98547.63;;;29.87;47.87
5455;BME280;2750;49.050;9.250;2022-07-29T17:49:53;98552.59;;;29.90;48.06
5455;BME280;2750;49.050;9.250;2022-07-29T17:54:54;98552.00;;;29.61;48.21
5455;BME280;2750;49.050;9.250;2022-07-29T17:59:57;98560.22;;;29.59;47.72
5455;BME280;2750;49.050;9.250;2022-07-29T18:04:59;98554.22;;;29.51;47.69
5455;BME280;2750;49.050;9.250;2022-07-29T18:10:00;98566.06;;;29.69;47.89
5455;BME280;2750;49.050;9.250;2022-07-29T18:15:04;98567.31;;;29.73;47.69
5455;BME280;2750;49.050;9.250;2022-07-29T18:20:06;98569.25;;;29.52;48.09
5455;BME280;2750;49.050;9.250;2022-07-29T18:25:08;98570.84;;;29.80;48.33
5455;BME280;2750;49.050;9.250;2022-07-29T18:30:12;98586.72;;;30.36;47.93
5455;BME280;2750;49.050;9.250;2022-07-29T18:35:15;98592.50;;;27.73;59.72
5455;BME280;2750;49.050;9.250;2022-07-29T18:40:17;98598.50;;;27.46;63.07
5455;BME280;2750;49.050;9.250;2022-07-29T18:45:21;98605.47;;;27.47;62.86
5455;BME280;2750;49.050;9.250;2022-07-29T18:50:23;98622.53;;;26.55;65.69
5455;BME280;2750;49.050;9.250;2022-07-29T18:55:25;98629.16;;;25.89;68.59
5455;BME280;2750;49.050;9.250;2022-07-29T19:00:28;98633.56;;;25.42;70.90
5455;BME280;2750;49.050;9.250;2022-07-29T19:05:29;98637.91;;;25.18;72.33
5455;BME280;2750;49.050;9.250;2022-07-29T19:10:31;98646.66;;;24.70;72.93
5455;BME280;2750;49.050;9.250;2022-07-29T19:15:34;98659.75;;;24.56;73.25
5455;BME280;2750;49.050;9.250;2022-07-29T19:20:35;98657.25;;;24.54;71.92
5455;BME280;2750;49.050;9.250;2022-07-29T19:25:37;98661.59;;;24.13;72.75
5455;BME280;2750;49.050;9.250;2022-07-29T19:30:40;98664.63;;;23.93;73.30
5455;BME280;2750;49.050;9.250;2022-07-29T19:35:42;98681.00;;;23.88;72.00
5455;BME280;2750;49.050;9.250;2022-07-29T19:40:43;98697.22;;;24.45;71.44
5455;BME280;2750;49.050;9.250;2022-07-29T19:45:46;98704.09;;;24.71;70.72
5455;BME280;2750;49.050;9.250;2022-07-29T19:50:47;98699.78;;;24.79;70.03
5455;BME280;2750;49.050;9.250;2022-07-29T19:55:49;98708.50;;;24.47;69.91
5455;BME280;2750;49.050;9.250;2022-07-29T20:00:52;98707.81;;;24.87;69.53
5455;BME280;2750;49.050;9.250;2022-07-29T20:05:53;98709.44;;;24.88;69.37
5455;BME280;2750;49.050;9.250;2022-07-29T20:10:55;98698.19;;;25.02;69.09
5455;BME280;2750;49.050;9.250;2022-07-29T20:15:58;98700.03;;;25.01;68.64
5455;BME280;2750;49.050;9.250;2022-07-29T20:20:59;98708.19;;;24.58;69.59
5455;BME280;2750;49.050;9.250;2022-07-29T20:26:02;98706.88;;;24.62;69.20
5455;BME280;2750;49.050;9.250;2022-07-29T20:31:05;98693.25;;;24.49;69.50
5455;BME280;2750;49.050;9.250;2022-07-29T20:36:07;98693.28;;;24.57;68.82
5455;BME280;2750;49.050;9.250;2022-07-29T20:41:09;98691.63;;;24.64;68.59
5455;BME280;2750;49.050;9.250;2022-07-29T20:46:12;98688.78;;;24.65;68.54
5455;BME280;2750;49.050;9.250;2022-07-29T20:51:13;98694.25;;;24.48;69.30
5455;BME280;2750;49.050;9.250;2022-07-29T20:56:15;98700.91;;;24.60;68.89
5455;BME280;2750;49.050;9.250;2022-07-29T21:01:18;98699.78;;;24.20;69.47
5455;BME280;2750;49.050;9.250;2022-07-29T21:06:19;98711.63;;;24.08;69.91
5455;BME280;2750;49.050;9.250;2022-07-29T21:11:21;98706.53;;;23.89;70.72
5455;BME280;2750;49.050;9.250;2022-07-29T21:16:24;98712.97;;;24.12;69.59
5455;BME280;2750;49.050;9.250;2022-07-29T21:21:27;98707.69;;;23.87;70.17
5455;BME280;2750;49.050;9.250;2022-07-29T21:26:29;98717.66;;;23.93;70.38
5455;BME280;2750;49.050;9.250;2022-07-29T21:31:32;98716.09;;;23.39;72.07
5455;BME280;2750;49.050;9.250;2022-07-29T21:36:33;98710.69;;;23.22;72.39
5455;BME280;2750;49.050;9.250;2022-07-29T21:41:34;98714.03;;;23.07;72.24
5455;BME280;2750;49.050;9.250;2022-07-29T21:46:37;98706.59;;;22.75;73.05
5455;BME280;2750;49.050;9.250;2022-07-29T21:51:39;98708.56;;;22.46;74.26
5455;BME280;2750;49.050;9.250;2022-07-29T21:56:40;98725.66;;;22.24;76.56
5455;BME280;2750;49.050;9.250;2022-07-29T22:01:43;98718.25;;;22.55;75.74
5455;BME280;2750;49.050;9.250;2022-07-29T22:06:44;98707.41;;;22.30;76.28
5455;BME280;2750;49.050;9.250;2022-07-29T22:11:46;98729.41;;;22.21;76.66
5455;BME280;2750;49.050;9.250;2022-07-29T22:16:49;98737.22;;;20.90;81.52
5455;BME280;2750;49.050;9.250;2022-07-29T22:21:50;98737.03;;;21.97;77.87
5455;BME280;2750;49.050;9.250;2022-07-29T22:26:52;98747.44;;;22.63;75.70
5455;BME280;2750;49.050;9.250;2022-07-29T22:31:55;98769.31;;;22.37;76.15
5455;BME280;2750;49.050;9.250;2022-07-29T22:36:57;98761.38;;;22.37;74.88
5455;BME280;2750;49.050;9.250;2022-07-29T22:41:58;98771.84;;;22.29;75.39
5455;BME280;2750;49.050;9.250;2022-07-29T22:47:02;98766.81;;;21.80;76.98
5455;BME280;2750;49.050;9.250;2022-07-29T22:52:04;98758.84;;;22.36;74.90
5455;BME280;2750;49.050;9.250;2022-07-29T22:57:06;98764.53;;;22.04;76.02
5455;BME280;2750;49.050;9.250;2022-07-29T23:02:09;98772.81;;;21.63;77.58
5455;BME280;2750;49.050;9.250;2022-07-29T23:07:11;98761.66;;;21.88;76.80
5455;BME280;2750;49.050;9.250;2022-07-29T23:12:13;98766.22;;;22.05;76.15
5455;BME280;2750;49.050;9.250;2022-07-29T23:17:15;98764.47;;;21.77;77.80
5455;BME280;2750;49.050;9.250;2022-07-29T23:22:17;98742.13;;;22.08;76.65
5455;BME280;2750;49.050;9.250;2022-07-29T23:27:18;98743.69;;;22.01;77.05
5455;BME280;2750;49.050;9.250;2022-07-29T23:32:21;98762.72;;;22.14;76.25
5455;BME280;2750;49.050;9.250;2022-07-29T23:37:23;98752.59;;;22.00;76.77
5455;BME280;2750;49.050;9.250;2022-07-29T23:42:24;98749.69;;;22.03;76.75
5455;BME280;2750;49.050;9.250;2022-07-29T23:47:27;98753.81;;;22.15;76.24
5455;BME280;2750;49.050;9.250;2022-07-29T23:52:29;98760.72;;;21.60;78.07
5455;BME280;2750;49.050;9.250;2022-07-29T23:57:30;98762.56;;;21.12;78.93
